Time;durP1;ratioP1;P1;durP2;ratioP2;P2;SDS_P1;SDS_P2;PMS_P1;PMS_P2;Temp;Humidity;BMP_temperature;BMP_pressure;BME280_temperature;BME280_humidity;BME280_pressure;Samples;Min_cycle;Max_cycle;Signal;HPM_P1;HPM_P2
2021/12/09 00:00:29;;;;;;;;;;;5.50;91.50;;;;;;5133682;28;19923;-78
2021/12/09 00:02:57;;;;;;;;;;;5.40;91.60;;;;;;5133409;28;19923;-78
2021/12/09 00:05:25;;;;;;;;;;;5.40;91.70;;;;;;5133321;28;19927;-79
2021/12/09 00:07:53;;;;;;;;;;;5.40;91.90;;;;;;5136518;27;19930;-79
2021/12/09 00:10:20;;;;;;;;;;;5.30;92.10;;;;;;5137518;27;19927;-79
2021/12/09 00:12:48;;;;;;;;;;;5.30;91.80;;;;;;5137202;27;19938;-78
2021/12/09 00:15:15;;;;;;;;;;;5.30;91.70;;;;;;5137374;27;19934;-77
2021/12/09 00:17:43;;;;;;;;;;;5.30;92.00;;;;;;5136935;27;19923;-76
2021/12/09 00:20:10;;;;;;;;;;;5.30;92.10;;;;;;5135890;27;19930;-76
2021/12/09 00:22:38;;;;;;;;;;;5.30;92.20;;;;;;5118716;27;19938;-75
2021/12/09 00:25:05;;;;;;;;;;;5.30;92.10;;;;;;5118485;27;19928;-75
2021/12/09 00:27:33;;;;;;;;;;;5.30;92.10;;;;;;5118493;27;19931;-75
2021/12/09 00:30:00;;;;;;;;;;;5.30;92.20;;;;;;5118444;27;19924;-75
2021/12/09 00:32:28;;;;;;;;;;;5.30;92.40;;;;;;5137054;27;19930;-75
2021/12/09 00:34:55;;;;;;;;;;;5.30;92.40;;;;;;5118492;27;19927;-75
2021/12/09 00:37:30;;;;;;;;;;;5.30;92.40;;;;;;5136685;27;19923;-75
2021/12/09 00:39:57;;;;;;;;;;;5.30;92.50;;;;;;5136876;27;19924;-75
2021/12/09 00:42:25;;;;;;;;;;;5.30;92.50;;;;;;5118168;27;19928;-76
2021/12/09 00:44:53;;;;;;;;;;;5.30;92.50;;;;;;5136384;27;19931;-75
2021/12/09 00:47:22;;;;;;;;;;;5.30;92.60;;;;;;5136501;27;19923;-78
2021/12/09 00:49:50;;;;;;;;;;;5.30;92.60;;;;;;5135663;27;19923;-77
2021/12/09 00:52:19;;;;;;;;;;;5.30;92.70;;;;;;5136557;27;19930;-77
2021/12/09 00:54:46;;;;;;;;;;;5.30;92.80;;;;;;5136605;27;19930;-76
2021/12/09 00:57:14;;;;;;;;;;;5.30;92.90;;;;;;5117899;27;19923;-76
2021/12/09 00:59:41;;;;;;;;;;;5.30;93.00;;;;;;5118246;27;19923;-76
2021/12/09 01:02:10;;;;;;;;;;;5.30;93.00;;;;;;5136813;27;19931;-76
2021/12/09 01:04:38;;;;;;;;;;;5.30;93.00;;;;;;5145208;27;19930;-75
2021/12/09 01:07:05;;;;;;;;;;;5.40;93.00;;;;;;5157018;27;20398;-75
2021/12/09 01:09:33;;;;;;;;;;;5.40;93.00;;;;;;5138511;27;20403;-75
2021/12/09 01:12:01;;;;;;;;;;;5.40;93.10;;;;;;5120642;27;19930;-75
2021/12/09 01:14:28;;;;;;;;;;;5.40;93.10;;;;;;5156123;27;19923;-77
2021/12/09 01:16:55;;;;;;;;;;;5.40;93.10;;;;;;5155358;27;20030;-76
2021/12/09 01:19:23;;;;;;;;;;;5.40;93.20;;;;;;5155601;27;19923;-76
2021/12/09 01:21:50;;;;;;;;;;;5.40;93.20;;;;;;5155972;27;19930;-76
2021/12/09 01:24:18;;;;;;;;;;;5.40;93.20;;;;;;5156340;27;19927;-76
2021/12/09 01:26:48;;;;;;;;;;;5.40;93.20;;;;;;5137841;27;19930;-75
2021/12/09 01:29:19;;;;;;;;;;;5.40;93.20;;;;;;5156396;27;19923;-75
2021/12/09 01:31:56;;;;;;;;;;;5.50;93.20;;;;;;5120855;27;19923;-74
2021/12/09 01:34:24;;;;;;;;;;;5.50;93.20;;;;;;5156402;27;20249;-75
2021/12/09 01:36:52;;;;;;;;;;;5.50;93.20;;;;;;5136873;27;20439;-75
2021/12/09 01:39:21;;;;;;;;;;;5.50;93.20;;;;;;5151345;27;19946;-75
2021/12/09 01:41:49;;;;;;;;;;;5.50;93.10;;;;;;5149246;27;19938;-75
2021/12/09 01:44:16;;;;;;;;;;;5.50;93.20;;;;;;5155869;27;19927;-75
2021/12/09 01:46:44;;;;;;;;;;;5.50;93.10;;;;;;5117112;27;19931;-75
2021/12/09 01:49:11;;;;;;;;;;;5.60;93.10;;;;;;5135299;27;19931;-75
2021/12/09 01:51:41;;;;;;;;;;;5.50;93.10;;;;;;5116892;27;19930;-75
2021/12/09 01:54:09;;;;;;;;;;;5.50;93.20;;;;;;5135026;27;19934;-75
2021/12/09 01:56:36;;;;;;;;;;;5.50;93.20;;;;;;5101028;27;19954;-75
2021/12/09 01:59:04;;;;;;;;;;;5.50;93.20;;;;;;5155056;27;19930;-75
2021/12/09 02:01:33;;;;;;;;;;;5.50;93.20;;;;;;5155612;27;19923;-76
2021/12/09 02:04:02;;;;;;;;;;;5.50;93.30;;;;;;5153658;27;19927;-76
2021/12/09 02:06:29;;;;;;;;;;;5.50;93.30;;;;;;5137085;27;19949;-76
2021/12/09 02:08:57;;;;;;;;;;;5.50;93.20;;;;;;5150477;27;19975;-76
2021/12/09 02:11:25;;;;;;;;;;;5.60;93.20;;;;;;5147370;27;19923;-76
2021/12/09 02:13:56;;;;;;;;;;;5.60;93.30;;;;;;5154433;27;19924;-77
2021/12/09 02:16:26;;;;;;;;;;;5.60;93.20;;;;;;5155433;27;19927;-77
2021/12/09 02:18:54;;;;;;;;;;;5.60;93.00;;;;;;5154460;27;19923;-77
2021/12/09 02:21:25;;;;;;;;;;;5.70;92.90;;;;;;5155499;27;19930;-77
2021/12/09 02:23:58;;;;;;;;;;;5.70;92.70;;;;;;5154049;27;19923;-77
2021/12/09 02:26:30;;;;;;;;;;;5.60;92.70;;;;;;5154006;27;19923;-77
2021/12/09 02:28:58;;;;;;;;;;;5.70;92.60;;;;;;5155184;27;19930;-77
2021/12/09 02:31:27;;;;;;;;;;;5.60;92.70;;;;;;5136493;27;20398;-77
2021/12/09 02:37:04;;;;;;;;;;;5.70;92.60;;;;;;5117510;23;20230;-75
2021/12/09 02:39:32;;;;;;;;;;;5.60;92.70;;;;;;4956407;28;19926;-75
2021/12/09 02:41:59;;;;;;;;;;;5.60;92.70;;;;;;4937759;29;19926;-75
2021/12/09 02:44:27;;;;;;;;;;;5.60;92.80;;;;;;4955028;29;19926;-75
2021/12/09 02:46:56;;;;;;;;;;;5.60;92.70;;;;;;4955133;29;19926;-75
2021/12/09 02:49:26;;;;;;;;;;;5.60;92.60;;;;;;4955471;29;19933;-75
2021/12/09 02:51:54;;;;;;;;;;;5.60;92.60;;;;;;4954676;29;19934;-75
2021/12/09 02:54:22;;;;;;;;;;;5.60;92.50;;;;;;4953492;28;19926;-75
2021/12/09 02:56:53;;;;;;;;;;;5.60;92.40;;;;;;4953597;28;19927;-75
2021/12/09 02:59:21;;;;;;;;;;;5.60;92.30;;;;;;4952949;29;19931;-75
2021/12/09 03:04:42;;;;;;;;;;;5.60;92.10;;;;;;4952522;29;19926;-76
2021/12/09 03:07:31;;;;;;;;;;;5.60;92.20;;;;;;4952498;29;19927;-76
2021/12/09 03:10:17;;;;;;;;;;;5.60;92.20;;;;;;4952162;29;20315;-76
2021/12/09 03:12:46;;;;;;;;;;;5.50;92.20;;;;;;4953061;28;19927;-76
2021/12/09 03:15:14;;;;;;;;;;;5.50;92.20;;;;;;4954934;29;20295;-75
2021/12/09 03:17:43;;;;;;;;;;;5.40;92.30;;;;;;4953964;28;19942;-75
2021/12/09 03:20:11;;;;;;;;;;;5.50;92.10;;;;;;4999672;28;19926;-75
2021/12/09 03:22:42;;;;;;;;;;;5.50;92.00;;;;;;4973930;28;19926;-76
2021/12/09 03:25:11;;;;;;;;;;;5.40;92.10;;;;;;4973917;28;19927;-76
2021/12/09 03:27:39;;;;;;;;;;;5.40;92.30;;;;;;4973778;28;19926;-75
2021/12/09 03:30:08;;;;;;;;;;;5.40;92.40;;;;;;4973861;28;19926;-75
2021/12/09 03:32:35;;;;;;;;;;;5.40;92.40;;;;;;4982907;28;20168;-76
2021/12/09 03:35:04;;;;;;;;;;;5.40;92.40;;;;;;4993127;28;20371;-76
2021/12/09 03:37:31;;;;;;;;;;;5.40;92.60;;;;;;4992879;28;20306;-75
2021/12/09 03:39:59;;;;;;;;;;;5.30;92.80;;;;;;4993192;28;19933;-75
2021/12/09 03:42:28;;;;;;;;;;;5.30;92.90;;;;;;4995358;28;19926;-75
2021/12/09 03:44:56;;;;;;;;;;;5.30;93.00;;;;;;4979274;28;19937;-76
2021/12/09 03:47:25;;;;;;;;;;;5.30;93.00;;;;;;4997214;28;20066;-76
2021/12/09 03:49:53;;;;;;;;;;;5.30;93.10;;;;;;4979123;28;20303;-75
2021/12/09 03:52:20;;;;;;;;;;;5.30;93.20;;;;;;4996896;28;20371;-75
2021/12/09 03:54:48;;;;;;;;;;;5.30;93.30;;;;;;4997101;28;20005;-75
2021/12/09 03:57:16;;;;;;;;;;;5.30;93.30;;;;;;4996949;28;19926;-75
2021/12/09 03:59:44;;;;;;;;;;;5.30;93.20;;;;;;4979494;28;19945;-75
2021/12/09 04:02:11;;;;;;;;;;;5.30;93.10;;;;;;4996917;28;19926;-75
2021/12/09 04:04:39;;;;;;;;;;;5.30;93.00;;;;;;4979374;28;19933;-75
2021/12/09 04:07:07;;;;;;;;;;;5.30;93.00;;;;;;4996639;28;19926;-75
2021/12/09 04:09:34;;;;;;;;;;;5.30;92.90;;;;;;4996680;28;19926;-75
2021/12/09 04:12:01;;;;;;;;;;;5.40;92.70;;;;;;4996479;28;20405;-75
2021/12/09 04:14:30;;;;;;;;;;;5.30;92.70;;;;;;4996669;28;19933;-75
2021/12/09 04:16:57;;;;;;;;;;;5.30;92.70;;;;;;4979373;28;19926;-75
2021/12/09 04:19:25;;;;;;;;;;;5.30;92.70;;;;;;4995139;28;19933;-75
2021/12/09 04:21:52;;;;;;;;;;;5.30;92.70;;;;;;4995839;28;19926;-75
2021/12/09 04:24:21;;;;;;;;;;;5.30;92.70;;;;;;4991759;28;19926;-75
2021/12/09 04:26:49;;;;;;;;;;;5.30;92.70;;;;;;4980531;28;19926;-75
2021/12/09 04:29:17;;;;;;;;;;;5.30;92.70;;;;;;4987172;28;19925;-75
2021/12/09 04:31:48;;;;;;;;;;;5.30;92.70;;;;;;4995750;28;19948;-74
2021/12/09 04:34:16;;;;;;;;;;;5.30;92.70;;;;;;4996306;28;20298;-74
2021/12/09 04:36:44;;;;;;;;;;;5.30;92.70;;;;;;4996247;28;20301;-75
2021/12/09 04:39:11;;;;;;;;;;;5.20;92.70;;;;;;4988991;28;19933;-74
2021/12/09 04:41:38;;;;;;;;;;;5.20;92.80;;;;;;4976714;28;19933;-74
2021/12/09 04:44:07;;;;;;;;;;;5.20;92.80;;;;;;4976540;28;19933;-74
2021/12/09 04:46:36;;;;;;;;;;;5.20;92.70;;;;;;4959335;28;19926;-74
2021/12/09 04:49:04;;;;;;;;;;;5.20;92.70;;;;;;4975561;28;20438;-75
2021/12/09 04:51:32;;;;;;;;;;;5.20;92.60;;;;;;4959224;28;20394;-74
2021/12/09 04:54:00;;;;;;;;;;;5.20;92.60;;;;;;4959168;28;19926;-74
2021/12/09 04:56:27;;;;;;;;;;;5.20;92.40;;;;;;4976570;28;19934;-74
2021/12/09 04:58:55;;;;;;;;;;;5.20;92.00;;;;;;4988274;28;20294;-75
2021/12/09 05:01:23;;;;;;;;;;;5.20;91.60;;;;;;4995699;28;19944;-74
2021/12/09 05:03:51;;;;;;;;;;;5.20;91.40;;;;;;4995818;28;19949;-74
2021/12/09 05:06:19;;;;;;;;;;;5.20;91.20;;;;;;4995438;28;20321;-75
2021/12/09 05:08:48;;;;;;;;;;;5.20;91.20;;;;;;4995631;28;19925;-74
2021/12/09 05:14:03;;;;;;;;;;;5.20;91.30;;;;;;4995754;28;19925;-74
2021/12/09 05:16:31;;;;;;;;;;;5.20;91.30;;;;;;4994668;28;19926;-75
2021/12/09 05:18:59;;;;;;;;;;;5.10;91.40;;;;;;4995601;28;19941;-75
2021/12/09 05:21:28;;;;;;;;;;;5.10;91.40;;;;;;4995606;28;19933;-75
2021/12/09 05:23:56;;;;;;;;;;;5.10;91.30;;;;;;4994992;28;19932;-75
2021/12/09 05:26:28;;;;;;;;;;;5.00;91.30;;;;;;4995229;28;19933;-75
2021/12/09 05:28:57;;;;;;;;;;;4.90;91.10;;;;;;4994855;28;19926;-75
2021/12/09 05:34:13;;;;;;;;;;;4.70;91.30;;;;;;4956496;29;20312;-76
2021/12/09 05:36:40;;;;;;;;;;;4.60;91.40;;;;;;4969035;28;19949;-75
2021/12/09 05:39:10;;;;;;;;;;;4.60;91.60;;;;;;4975650;28;19926;-75
2021/12/09 05:41:37;;;;;;;;;;;4.50;91.70;;;;;;4958180;28;19926;-75
2021/12/09 05:44:05;;;;;;;;;;;4.40;91.80;;;;;;4975522;28;19926;-75
2021/12/09 05:46:34;;;;;;;;;;;4.40;91.80;;;;;;4975626;28;20299;-75
2021/12/09 05:49:02;;;;;;;;;;;4.40;91.90;;;;;;4975605;28;19926;-75
2021/12/09 05:51:29;;;;;;;;;;;4.30;91.90;;;;;;4975408;28;19926;-75
2021/12/09 05:53:56;;;;;;;;;;;4.30;92.10;;;;;;4975603;28;19926;-75
2021/12/09 05:56:24;;;;;;;;;;;4.30;92.20;;;;;;4975402;28;19934;-75
2021/12/09 05:58:52;;;;;;;;;;;4.30;92.30;;;;;;4990066;28;19933;-75
2021/12/09 06:01:20;;;;;;;;;;;4.30;92.30;;;;;;4957482;28;19934;-75
2021/12/09 06:03:48;;;;;;;;;;;4.20;92.30;;;;;;4974422;28;19926;-75
2021/12/09 06:06:15;;;;;;;;;;;4.30;92.20;;;;;;4974771;28;19926;-75
2021/12/09 06:08:43;;;;;;;;;;;4.30;92.30;;;;;;4975063;28;19949;-76
2021/12/09 06:11:11;;;;;;;;;;;4.30;92.30;;;;;;4975195;28;19934;-75
2021/12/09 06:13:39;;;;;;;;;;;4.30;92.20;;;;;;4974985;28;20322;-75
2021/12/09 06:16:07;;;;;;;;;;;4.30;92.20;;;;;;4974941;28;19949;-75
2021/12/09 06:18:34;;;;;;;;;;;4.20;92.20;;;;;;4974909;28;19956;-75
2021/12/09 06:21:03;;;;;;;;;;;4.20;92.20;;;;;;4957701;28;20383;-75
2021/12/09 06:23:31;;;;;;;;;;;4.20;92.20;;;;;;4957669;28;20288;-76
2021/12/09 06:25:59;;;;;;;;;;;4.30;92.10;;;;;;4974872;28;19933;-76
2021/12/09 06:28:26;;;;;;;;;;;4.30;92.10;;;;;;4974639;28;20397;-75
2021/12/09 06:30:53;;;;;;;;;;;4.30;92.00;;;;;;4975604;28;19934;-77
2021/12/09 06:33:21;;;;;;;;;;;4.20;92.00;;;;;;4974580;28;19926;-76
2021/12/09 06:35:48;;;;;;;;;;;4.20;92.10;;;;;;4974674;28;19933;-77
2021/12/09 06:38:17;;;;;;;;;;;4.20;92.10;;;;;;4974802;28;20398;-77
2021/12/09 06:40:45;;;;;;;;;;;4.20;92.10;;;;;;4957472;28;19930;-76
2021/12/09 06:43:13;;;;;;;;;;;4.30;92.10;;;;;;4974367;28;19926;-76
2021/12/09 06:45:40;;;;;;;;;;;4.30;92.00;;;;;;4974316;28;20402;-77
2021/12/09 06:48:08;;;;;;;;;;;4.30;91.80;;;;;;4986210;28;19941;-76
2021/12/09 06:50:36;;;;;;;;;;;4.40;91.70;;;;;;4974477;28;19926;-77
2021/12/09 06:53:04;;;;;;;;;;;4.40;91.70;;;;;;4957148;28;20334;-77
2021/12/09 06:55:32;;;;;;;;;;;4.50;91.50;;;;;;4974423;28;19926;-77
2021/12/09 06:57:59;;;;;;;;;;;4.50;91.50;;;;;;4974193;28;19926;-77
2021/12/09 07:00:28;;;;;;;;;;;4.50;91.40;;;;;;4973511;28;19933;-77
2021/12/09 07:02:56;;;;;;;;;;;4.40;91.40;;;;;;4956927;28;19926;-77
2021/12/09 07:05:24;;;;;;;;;;;4.40;91.40;;;;;;4974446;28;19949;-77
2021/12/09 07:07:53;;;;;;;;;;;4.30;91.30;;;;;;4956885;28;19930;-77
2021/12/09 07:10:21;;;;;;;;;;;4.30;91.40;;;;;;4973318;28;19933;-77
2021/12/09 07:12:49;;;;;;;;;;;4.30;91.40;;;;;;4974400;28;19926;-76
2021/12/09 07:15:17;;;;;;;;;;;4.30;91.40;;;;;;4974157;28;19926;-75
2021/12/09 07:17:45;;;;;;;;;;;4.40;91.30;;;;;;4973212;28;19937;-75
2021/12/09 07:20:14;;;;;;;;;;;4.40;91.30;;;;;;4973969;28;19949;-75
2021/12/09 07:22:41;;;;;;;;;;;4.40;91.20;;;;;;4973884;28;19949;-76
2021/12/09 07:25:09;;;;;;;;;;;4.60;91.00;;;;;;4974002;28;19926;-75
2021/12/09 07:27:36;;;;;;;;;;;4.60;91.00;;;;;;4974129;28;19933;-76
2021/12/09 07:30:05;;;;;;;;;;;4.70;90.80;;;;;;4973728;28;19926;-75
2021/12/09 07:32:32;;;;;;;;;;;4.70;90.40;;;;;;4966767;28;19925;-75
2021/12/09 07:35:00;;;;;;;;;;;4.80;90.40;;;;;;4958567;28;19926;-76
2021/12/09 07:37:28;;;;;;;;;;;4.80;90.20;;;;;;4979373;28;19926;-76
2021/12/09 07:39:55;;;;;;;;;;;4.80;90.00;;;;;;4980365;28;19933;-76
2021/12/09 07:42:23;;;;;;;;;;;4.80;89.80;;;;;;4975625;28;19933;-76
2021/12/09 07:44:51;;;;;;;;;;;4.90;89.60;;;;;;4979548;28;19926;-76
2021/12/09 07:47:18;;;;;;;;;;;4.90;89.60;;;;;;4973192;28;19926;-76
2021/12/09 07:49:46;;;;;;;;;;;4.90;89.30;;;;;;4961108;28;19926;-76
2021/12/09 07:52:13;;;;;;;;;;;4.90;89.10;;;;;;4989064;28;19925;-76
2021/12/09 07:54:41;;;;;;;;;;;5.00;89.10;;;;;;4974397;28;19933;-76
2021/12/09 07:57:08;;;;;;;;;;;5.00;89.20;;;;;;4974511;28;20364;-76
2021/12/09 07:59:36;;;;;;;;;;;5.00;89.00;;;;;;4965532;28;19937;-76
2021/12/09 08:02:05;;;;;;;;;;;5.00;88.80;;;;;;4976565;28;19926;-75
2021/12/09 08:04:37;;;;;;;;;;;5.00;88.90;;;;;;4978061;28;19926;-77
2021/12/09 08:07:04;;;;;;;;;;;5.00;89.10;;;;;;4993122;28;19925;-76
2021/12/09 08:09:32;;;;;;;;;;;5.00;89.10;;;;;;4987822;28;20414;-76
2021/12/09 08:11:59;;;;;;;;;;;5.00;88.70;;;;;;4974103;28;20303;-76
2021/12/09 08:14:27;;;;;;;;;;;5.00;88.50;;;;;;4979179;28;20305;-76
2021/12/09 08:17:12;;;;;;;;;;;5.00;88.80;;;;;;4987803;28;19933;-76
2021/12/09 08:19:40;;;;;;;;;;;4.90;88.90;;;;;;4986330;28;19926;-77
2021/12/09 08:22:08;;;;;;;;;;;4.90;89.00;;;;;;4978289;28;19927;-76
2021/12/09 08:24:36;;;;;;;;;;;4.90;89.00;;;;;;4971618;28;19937;-76
2021/12/09 08:27:03;;;;;;;;;;;4.90;88.90;;;;;;4971683;28;19949;-77
2021/12/09 08:29:31;;;;;;;;;;;5.00;88.90;;;;;;4981591;28;20371;-76
2021/12/09 08:31:58;;;;;;;;;;;4.90;88.80;;;;;;4996034;28;20408;-77
2021/12/09 08:34:25;;;;;;;;;;;5.00;88.50;;;;;;4996351;28;20049;-80
2021/12/09 08:36:55;;;;;;;;;;;5.00;88.60;;;;;;4976987;28;20368;-77
2021/12/09 08:39:22;;;;;;;;;;;5.00;88.60;;;;;;4995273;28;19930;-76
2021/12/09 08:41:50;;;;;;;;;;;5.00;88.40;;;;;;4995325;28;20394;-77
2021/12/09 08:44:17;;;;;;;;;;;5.00;88.30;;;;;;4995800;28;19933;-77
2021/12/09 08:46:44;;;;;;;;;;;5.00;88.10;;;;;;4995393;28;19925;-75
2021/12/09 08:49:12;;;;;;;;;;;5.00;88.20;;;;;;4995902;28;19932;-76
2021/12/09 08:51:40;;;;;;;;;;;5.00;88.30;;;;;;4979153;28;19926;-75
2021/12/09 08:54:07;;;;;;;;;;;4.90;88.30;;;;;;4979102;28;19926;-77
2021/12/09 08:56:36;;;;;;;;;;;4.90;88.30;;;;;;4996448;28;19925;-77
2021/12/09 08:59:05;;;;;;;;;;;4.90;88.40;;;;;;4996487;28;19925;-76
2021/12/09 09:01:33;;;;;;;;;;;4.90;88.50;;;;;;4996330;28;19926;-78
2021/12/09 09:04:01;;;;;;;;;;;4.90;88.30;;;;;;4995857;28;19930;-76
2021/12/09 09:06:29;;;;;;;;;;;4.90;88.20;;;;;;4995768;28;19926;-76
2021/12/09 09:08:58;;;;;;;;;;;4.90;88.20;;;;;;4978238;28;19926;-77
2021/12/09 09:11:29;;;;;;;;;;;4.90;88.20;;;;;;4995902;28;19926;-77
2021/12/09 09:13:57;;;;;;;;;;;4.90;88.30;;;;;;4995896;28;19926;-77
2021/12/09 09:16:24;;;;;;;;;;;4.80;88.30;;;;;;4996439;28;19925;-77
2021/12/09 09:18:55;;;;;;;;;;;4.80;88.20;;;;;;4995565;28;19926;-77
2021/12/09 09:21:23;;;;;;;;;;;4.80;88.30;;;;;;4995272;28;19926;-77
2021/12/09 09:23:50;;;;;;;;;;;4.80;88.40;;;;;;4995532;28;19929;-77
2021/12/09 09:26:18;;;;;;;;;;;4.80;88.30;;;;;;4978531;28;19926;-76
2021/12/09 09:28:45;;;;;;;;;;;4.80;88.40;;;;;;4995868;28;19926;-76
2021/12/09 09:31:13;;;;;;;;;;;4.70;88.50;;;;;;4995535;28;19926;-76
2021/12/09 09:33:41;;;;;;;;;;;4.70;88.50;;;;;;4978068;28;19926;-75
2021/12/09 09:36:09;;;;;;;;;;;4.60;88.50;;;;;;4995697;28;19926;-76
2021/12/09 09:38:37;;;;;;;;;;;4.60;88.50;;;;;;4995711;28;19926;-77
2021/12/09 09:41:10;;;;;;;;;;;4.60;88.60;;;;;;4994500;28;19926;-77
2021/12/09 09:46:12;;;;;;;;;;;4.40;88.90;;;;;;4996086;28;19948;-77
2021/12/09 09:48:39;;;;;;;;;;;4.40;89.00;;;;;;4995499;28;20382;-78
2021/12/09 09:51:09;;;;;;;;;;;4.40;89.00;;;;;;4977600;28;19926;-77
2021/12/09 09:53:38;;;;;;;;;;;4.50;89.10;;;;;;4977995;28;19930;-78
2021/12/09 09:56:14;;;;;;;;;;;4.50;89.00;;;;;;4996098;28;19937;-77
2021/12/09 09:58:43;;;;;;;;;;;4.50;89.00;;;;;;4998885;28;19929;-77
2021/12/09 10:01:11;;;;;;;;;;;4.50;88.80;;;;;;4963685;28;19934;-80
2021/12/09 10:03:45;;;;;;;;;;;4.50;88.80;;;;;;4954863;28;19933;-77
2021/12/09 10:06:14;;;;;;;;;;;4.50;88.70;;;;;;4975782;28;19933;-76
2021/12/09 10:08:41;;;;;;;;;;;4.50;88.70;;;;;;4974583;28;19926;-77
2021/12/09 10:11:09;;;;;;;;;;;4.50;88.70;;;;;;4973745;28;20379;-78
2021/12/09 10:13:38;;;;;;;;;;;4.50;88.70;;;;;;4957442;28;19930;-78
2021/12/09 10:16:21;;;;;;;;;;;4.50;88.70;;;;;;4974951;28;20406;-77
2021/12/09 10:18:49;;;;;;;;;;;4.50;88.60;;;;;;4975085;28;19933;-77
2021/12/09 10:21:24;;;;;;;;;;;4.50;88.60;;;;;;4975058;28;20328;-76
2021/12/09 10:23:59;;;;;;;;;;;4.50;88.60;;;;;;4975202;28;19926;-78
2021/12/09 10:26:36;;;;;;;;;;;4.50;88.70;;;;;;4974503;28;19934;-77
2021/12/09 10:29:04;;;;;;;;;;;4.50;88.80;;;;;;4974755;28;20375;-76
2021/12/09 10:31:39;;;;;;;;;;;4.50;88.80;;;;;;4975122;28;19926;-78
2021/12/09 10:34:36;;;;;;;;;;;4.60;88.70;;;;;;4957572;28;19936;-78
2021/12/09 10:37:22;;;;;;;;;;;4.70;88.20;;;;;;4974371;28;20331;-76
2021/12/09 10:39:54;;;;;;;;;;;4.80;88.10;;;;;;4973677;28;19934;-75
2021/12/09 10:42:29;;;;;;;;;;;4.80;88.10;;;;;;4974743;28;20307;-77
2021/12/09 10:45:12;;;;;;;;;;;4.90;88.30;;;;;;4974551;28;20430;-77
2021/12/09 10:47:53;;;;;;;;;;;5.20;87.70;;;;;;4956450;28;19926;-78
2021/12/09 10:53:04;;;;;;;;;;;5.40;86.60;;;;;;4974594;28;19926;-77
2021/12/09 10:55:34;;;;;;;;;;;5.50;86.00;;;;;;4941736;28;19930;-78
2021/12/09 10:58:04;;;;;;;;;;;5.50;86.00;;;;;;4974378;28;20306;-77
2021/12/09 11:00:32;;;;;;;;;;;5.50;85.90;;;;;;4957138;28;20343;-76
2021/12/09 11:03:06;;;;;;;;;;;5.50;85.80;;;;;;4957014;28;19943;-77
2021/12/09 11:05:35;;;;;;;;;;;5.40;85.60;;;;;;4974446;28;19933;-78
2021/12/09 11:08:20;;;;;;;;;;;5.40;85.80;;;;;;4974169;28;19933;-77
2021/12/09 11:10:49;;;;;;;;;;;5.30;85.80;;;;;;4974169;28;19938;-78
2021/12/09 11:13:21;;;;;;;;;;;5.30;86.10;;;;;;4974318;28;19926;-77
2021/12/09 11:15:57;;;;;;;;;;;5.20;86.30;;;;;;4957169;28;19933;-78
2021/12/09 11:18:32;;;;;;;;;;;5.20;86.30;;;;;;4974016;28;19927;-77
2021/12/09 11:21:03;;;;;;;;;;;5.10;86.50;;;;;;4973615;28;19926;-78
2021/12/09 11:23:37;;;;;;;;;;;5.20;86.50;;;;;;4974406;28;20301;-77
2021/12/09 11:26:30;;;;;;;;;;;5.30;86.10;;;;;;4974261;28;19926;-78
2021/12/09 11:29:05;;;;;;;;;;;5.50;85.90;;;;;;4974200;28;19937;-77
2021/12/09 11:31:37;;;;;;;;;;;5.80;84.40;;;;;;4957299;28;19926;-78
2021/12/09 11:34:12;;;;;;;;;;;6.00;83.30;;;;;;4957601;28;20331;-79
2021/12/09 11:36:46;;;;;;;;;;;6.20;82.80;;;;;;4957244;28;20274;-78
2021/12/09 11:39:19;;;;;;;;;;;6.50;81.70;;;;;;4972799;28;19926;-78
2021/12/09 11:41:47;;;;;;;;;;;6.80;81.70;;;;;;4974133;28;20307;-79
2021/12/09 11:44:15;;;;;;;;;;;7.20;81.10;;;;;;4974124;28;19926;-78
2021/12/09 11:46:45;;;;;;;;;;;7.60;79.40;;;;;;4956727;28;19926;-78
2021/12/09 11:49:13;;;;;;;;;;;7.90;76.30;;;;;;4974106;28;19932;-77
2021/12/09 11:51:40;;;;;;;;;;;8.00;76.50;;;;;;4973428;28;20384;-78
2021/12/09 11:54:09;;;;;;;;;;;8.20;77.20;;;;;;4973891;28;20427;-78
2021/12/09 11:59:25;;;;;;;;;;;8.80;74.90;;;;;;4973852;28;19926;-78
2021/12/09 12:11:09;;;;;;;;;;;9.40;69.30;;;;;;4977791;28;19941;-77
2021/12/09 12:11:16;;;;;;;;;;;8.90;70.50;;;;;;4977505;28;20035;-78
2021/12/09 12:13:55;;;;;;;;;;;8.50;71.60;;;;;;4977707;28;20488;-77
2021/12/09 12:19:33;;;;;;;;;;;7.90;73.70;;;;;;4977495;28;19926;-79
2021/12/09 12:22:38;;;;;;;;;;;8.00;74.00;;;;;;4959436;28;19932;-77
2021/12/09 12:25:26;;;;;;;;;;;8.10;74.10;;;;;;4976964;28;19933;-78
2021/12/09 12:28:10;;;;;;;;;;;8.60;73.10;;;;;;4976924;28;19926;-78
2021/12/09 12:33:51;;;;;;;;;;;9.30;70.20;;;;;;4977477;28;19933;-79
2021/12/09 12:36:53;;;;;;;;;;;9.20;70.60;;;;;;4977155;28;19937;-78
2021/12/09 12:39:12;;;;;;;;;;;9.00;70.80;;;;;;4958058;28;19933;-79
2021/12/09 12:42:02;;;;;;;;;;;8.90;71.40;;;;;;4977214;28;19926;-79
2021/12/09 12:44:31;;;;;;;;;;;9.10;72.00;;;;;;4976130;28;20307;-77
2021/12/09 12:47:13;;;;;;;;;;;9.50;73.20;;;;;;4958866;28;20403;-78
2021/12/09 12:49:47;;;;;;;;;;;9.80;73.50;;;;;;4958510;28;19933;-76
2021/12/09 12:52:25;;;;;;;;;;;9.90;71.60;;;;;;4959481;28;19926;-78
2021/12/09 12:55:11;;;;;;;;;;;9.80;70.20;;;;;;4977016;28;19926;-79
2021/12/09 12:57:41;;;;;;;;;;;9.80;70.50;;;;;;4959481;28;20388;-78
2021/12/09 13:00:12;;;;;;;;;;;9.80;70.80;;;;;;4976798;28;19930;-78
2021/12/09 13:19:13;;;;;;;;;;;10.80;68.40;;;;;;4973259;28;19952;-80
2021/12/09 13:21:40;;;;;;;;;;;11.00;67.30;;;;;;4956695;28;19926;-79
2021/12/09 13:24:21;;;;;;;;;;;11.00;67.40;;;;;;4973655;28;19927;-78
2021/12/09 13:30:13;;;;;;;;;;;10.80;66.60;;;;;;4965197;28;19926;-80
2021/12/09 13:48:56;;;;;;;;;;;8.10;74.40;;;;;;4974670;28;19926;-78
2021/12/09 13:54:23;;;;;;;;;;;7.70;75.80;;;;;;4974229;28;19926;-79
2021/12/09 13:56:58;;;;;;;;;;;7.50;76.20;;;;;;4971192;28;19926;-79
2021/12/09 13:59:27;;;;;;;;;;;7.30;76.70;;;;;;4974368;28;20292;-78
2021/12/09 14:01:55;;;;;;;;;;;7.30;77.10;;;;;;4956750;28;19944;-78
2021/12/09 14:04:24;;;;;;;;;;;7.20;77.40;;;;;;4974643;28;19930;-79
2021/12/09 14:07:16;;;;;;;;;;;7.20;77.70;;;;;;4971550;28;20295;-77
2021/12/09 14:09:55;;;;;;;;;;;7.20;78.00;;;;;;4957637;28;19935;-78
2021/12/09 14:12:25;;;;;;;;;;;7.10;78.20;;;;;;4974390;28;19933;-78
2021/12/09 14:15:07;;;;;;;;;;;7.10;78.50;;;;;;4971077;28;20406;-79
2021/12/09 14:17:38;;;;;;;;;;;7.00;78.60;;;;;;4985022;28;19933;-79
2021/12/09 14:20:14;;;;;;;;;;;7.00;78.90;;;;;;4973504;28;19926;-79
2021/12/09 14:22:44;;;;;;;;;;;6.90;79.00;;;;;;4974232;28;19927;-80
2021/12/09 14:25:13;;;;;;;;;;;6.90;79.30;;;;;;4970627;28;20311;-79
2021/12/09 14:27:41;;;;;;;;;;;6.80;79.50;;;;;;4988643;28;19926;-80
2021/12/09 14:30:10;;;;;;;;;;;6.80;79.80;;;;;;4972472;28;20136;-79
2021/12/09 14:32:43;;;;;;;;;;;6.70;80.00;;;;;;4973733;28;19933;-78
2021/12/09 14:35:17;;;;;;;;;;;6.70;80.20;;;;;;4969231;28;19926;-79
2021/12/09 14:37:48;;;;;;;;;;;6.60;80.50;;;;;;4974100;28;20295;-79
2021/12/09 14:40:19;;;;;;;;;;;6.50;80.90;;;;;;4957236;28;19933;-79
2021/12/09 14:42:52;;;;;;;;;;;6.50;81.10;;;;;;4974584;28;19941;-79
2021/12/09 14:45:26;;;;;;;;;;;6.40;81.20;;;;;;4975212;28;19926;-80
2021/12/09 14:47:58;;;;;;;;;;;6.40;81.40;;;;;;4958895;28;19927;-79
2021/12/09 14:50:33;;;;;;;;;;;6.40;81.60;;;;;;4974291;28;19937;-79
2021/12/09 14:53:36;;;;;;;;;;;6.30;81.90;;;;;;4976474;28;20324;-80
2021/12/09 14:56:25;;;;;;;;;;;6.30;82.00;;;;;;4960184;28;19933;-78
2021/12/09 14:58:54;;;;;;;;;;;6.30;82.10;;;;;;4977176;28;20395;-79
2021/12/09 15:01:22;;;;;;;;;;;6.30;82.30;;;;;;4976990;28;20392;-79
2021/12/09 15:04:01;;;;;;;;;;;6.20;82.40;;;;;;4976926;28;19930;-79
2021/12/09 15:06:34;;;;;;;;;;;6.20;82.50;;;;;;4976996;28;19937;-80
2021/12/09 15:09:21;;;;;;;;;;;6.20;82.70;;;;;;4958409;28;19926;-80
2021/12/09 15:11:52;;;;;;;;;;;6.20;82.80;;;;;;4975249;28;19926;-79
2021/12/09 15:14:19;;;;;;;;;;;6.20;82.90;;;;;;4975254;28;19926;-80
2021/12/09 15:17:02;;;;;;;;;;;6.10;83.00;;;;;;4958195;28;19930;-85
2021/12/09 15:19:30;;;;;;;;;;;6.10;83.10;;;;;;4971568;28;19934;-78
2021/12/09 15:22:19;;;;;;;;;;;6.10;83.20;;;;;;4973508;28;19933;-79
2021/12/09 15:24:58;;;;;;;;;;;6.10;83.20;;;;;;4972914;28;20557;-79
2021/12/09 15:27:45;;;;;;;;;;;6.10;83.20;;;;;;4984926;28;19934;-79
2021/12/09 15:30:12;;;;;;;;;;;6.10;83.30;;;;;;4956283;28;19926;-80
2021/12/09 15:32:59;;;;;;;;;;;6.10;83.40;;;;;;4929389;28;19925;-80
2021/12/09 15:35:28;;;;;;;;;;;6.10;83.30;;;;;;4974589;28;19933;-80
2021/12/09 15:37:56;;;;;;;;;;;6.10;83.40;;;;;;4976907;28;20410;-80
2021/12/09 15:40:23;;;;;;;;;;;6.00;83.60;;;;;;4962064;28;19933;-80
2021/12/09 15:42:51;;;;;;;;;;;6.00;83.80;;;;;;4978937;28;19937;-79
2021/12/09 15:45:20;;;;;;;;;;;6.00;84.00;;;;;;4978867;28;19926;-80
2021/12/09 15:47:47;;;;;;;;;;;5.90;84.30;;;;;;4979121;28;19942;-80
2021/12/09 15:50:25;;;;;;;;;;;5.90;84.70;;;;;;4962113;28;19926;-79
2021/12/09 15:52:55;;;;;;;;;;;5.80;84.90;;;;;;4979516;28;20306;-79
2021/12/09 15:55:29;;;;;;;;;;;5.80;85.20;;;;;;4995588;28;19926;-80
2021/12/09 15:58:06;;;;;;;;;;;5.70;85.50;;;;;;4980981;28;19926;-79
2021/12/09 16:00:34;;;;;;;;;;;5.70;85.90;;;;;;4997578;28;19925;-79